Great Falls Observed Data For Previous 48 Hours

Caption
Day and Hour Reservoir Elevation (behind dam)* Tailwater Elevation (below dam)* Average Hourly Discharge*
1/17/2018 1 AM CST 787.80 651.45 160
1/17/2018 2 AM CST 787.81 650.55 160
1/17/2018 3 AM CST 787.82 650.55 160
1/17/2018 4 AM CST 787.83 651.87 1,507
1/17/2018 5 AM CST 787.85 653.20 1,507
1/17/2018 6 AM CST 787.86 654.32 2,960
1/17/2018 7 AM CST 787.87 655.45 2,960
1/17/2018 8 AM CST 787.76 655.44 3,033
1/17/2018 9 AM CST 787.65 655.44 3,005
1/17/2018 10 AM CST 787.58 655.43 3,006
1/17/2018 11 AM CST 787.47 655.40 2,986
1/17/2018 12 PM CST 787.51 653.24 1,564
1/17/2018 1 PM CST 787.59 651.24 203
1/17/2018 2 PM CST 787.66 650.65 160
1/17/2018 3 PM CST 787.78 650.59 160
1/17/2018 4 PM CST 787.84 650.54 160
1/17/2018 5 PM CST 787.86 650.57 192
1/17/2018 6 PM CST 787.82 653.73 1,527
1/17/2018 7 PM CST 787.80 655.43 2,996
1/17/2018 8 PM CST 787.72 655.41 2,993
1/17/2018 9 PM CST 787.60 655.42 2,982
1/17/2018 10 PM CST 787.63 653.23 1,555
1/17/2018 11 PM CST 787.70 650.94 204
1/18/2018 12 AM CST 787.76 650.63 160
1/18/2018 1 AM CST 787.88 650.60 160
1/18/2018 2 AM CST 787.95 650.55 160
1/18/2018 3 AM CST 787.96 650.55 190
1/18/2018 4 AM CST 787.92 653.69 1,518
1/18/2018 5 AM CST 787.90 655.41 2,989
1/18/2018 6 AM CST 787.81 655.42 2,993
1/18/2018 7 AM CST 787.70 655.42 2,989
1/18/2018 8 AM CST 787.60 655.42 2,988
1/18/2018 9 AM CST 787.50 655.40 2,980
1/18/2018 10 AM CST 787.39 655.41 2,981
1/18/2018 11 AM CST 787.28 655.38 2,975
1/18/2018 12 PM CST 787.40 652.46 1,329
1/18/2018 1 PM CST 787.39 650.73 160
1/18/2018 2 PM CST 787.45 650.63 160
1/18/2018 3 PM CST 787.58 650.60 160
1/18/2018 4 PM CST 787.62 650.55 160
1/18/2018 5 PM CST 787.64 650.56 192
1/18/2018 6 PM CST 787.60 653.83 1,535
1/18/2018 7 PM CST 787.57 655.45 2,984
1/18/2018 8 PM CST 787.48 655.42 2,976
1/18/2018 9 PM CST 787.35 655.43 2,977
1/18/2018 10 PM CST 787.23 655.43 2,959
1/18/2018 11 PM CST 787.27 653.22 1,538

Elevations are in feet above sea level. Discharges are in cubic feet per second and are reported at the end of the hour.